Time;durP1;ratioP1;P1;durP2;ratioP2;P2;SDS_P1;SDS_P2;PMS_P1;PMS_P2;Temp;Humidity;BMP_temperature;BMP_pressure;BME280_temperature;BME280_humidity;BME280_pressure;Samples;Min_cycle;Max_cycle;Signal;HPM_P1;HPM_P2
2023/09/12 00:00:48;;;;;;;14.53;5.00;;;17.40;99.90;;;;;;5091636;28;20663;-61
2023/09/12 00:03:14;;;;;;;12.03;4.60;;;17.40;99.90;;;;;;5090912;28;20177;-61
2023/09/12 00:05:40;;;;;;;8.60;3.90;;;17.30;99.90;;;;;;5090024;28;20902;-61
2023/09/12 00:08:06;;;;;;;6.83;4.70;;;17.30;99.90;;;;;;5080175;28;20429;-61
2023/09/12 00:10:32;;;;;;;8.00;4.63;;;17.30;99.90;;;;;;5091464;28;20246;-61
2023/09/12 00:13:00;;;;;;;7.57;4.53;;;17.20;99.90;;;;;;5090027;28;20430;-61
2023/09/12 00:15:26;;;;;;;26.33;4.70;;;17.20;99.90;;;;;;5091280;28;20426;-61
2023/09/12 00:17:51;;;;;;;8.70;5.00;;;17.10;99.90;;;;;;5090847;28;20429;-61
2023/09/12 00:20:17;;;;;;;17.23;4.27;;;17.10;99.90;;;;;;5083885;28;20832;-61
2023/09/12 00:22:43;;;;;;;8.37;4.33;;;17.10;99.90;;;;;;5091276;28;20184;-61
2023/09/12 00:25:08;;;;;;;9.13;4.47;;;17.10;99.90;;;;;;5090931;28;20212;-61
2023/09/12 00:27:34;;;;;;;8.40;4.70;;;17.10;99.90;;;;;;5083968;28;20181;-61
2023/09/12 00:29:59;;;;;;;19.73;4.37;;;17.20;99.90;;;;;;5086992;28;20211;-61
2023/09/12 00:32:25;;;;;;;8.90;3.73;;;17.10;99.90;;;;;;5085247;28;20250;-61
2023/09/12 00:34:51;;;;;;;8.33;4.27;;;17.10;99.90;;;;;;5095754;28;20189;-61
2023/09/12 00:37:16;;;;;;;12.13;4.50;;;17.10;99.90;;;;;;5097198;28;20722;-61
2023/09/12 00:39:42;;;;;;;11.23;4.60;;;17.10;99.90;;;;;;5103359;28;20203;-61
2023/09/12 00:42:07;;;;;;;17.13;4.37;;;17.10;99.90;;;;;;5091411;28;20177;-61
2023/09/12 00:44:33;;;;;;;8.20;4.40;;;17.10;99.90;;;;;;5090526;28;20204;-61
2023/09/12 00:47:00;;;;;;;6.90;4.60;;;17.10;99.90;;;;;;5091063;28;20259;-61
2023/09/12 00:49:27;;;;;;;11.50;5.10;;;17.10;99.90;;;;;;5091275;28;20422;-61
2023/09/12 00:51:55;;;;;;;9.77;4.00;;;17.00;99.90;;;;;;5091419;28;20453;-61
2023/09/12 00:54:20;;;;;;;11.13;4.83;;;17.00;99.90;;;;;;5090230;28;20427;-61
2023/09/12 00:56:46;;;;;;;9.30;4.33;;;16.90;99.90;;;;;;5091234;28;20422;-61
2023/09/12 00:59:14;;;;;;;20.67;4.63;;;16.90;99.90;;;;;;5090655;28;20183;-61
2023/09/12 01:01:39;;;;;;;8.80;4.53;;;16.90;99.90;;;;;;5084155;28;20298;-61
2023/09/12 01:04:05;;;;;;;7.83;4.30;;;16.90;99.90;;;;;;5085546;28;20608;-61
2023/09/12 01:06:32;;;;;;;8.73;3.80;;;16.90;99.90;;;;;;5090612;28;20645;-61
2023/09/12 01:08:58;;;;;;;8.10;4.57;;;16.90;99.90;;;;;;5090586;28;20279;-61
2023/09/12 01:11:24;;;;;;;25.80;5.03;;;16.90;99.90;;;;;;5090684;28;20497;-61
2023/09/12 01:13:50;;;;;;;9.70;4.43;;;16.80;99.90;;;;;;5090620;28;20188;-61
2023/09/12 01:16:15;;;;;;;9.00;4.97;;;16.80;99.90;;;;;;5089653;28;20414;-61
2023/09/12 01:18:42;;;;;;;8.57;4.57;;;16.70;99.90;;;;;;5087669;28;20252;-61
2023/09/12 01:21:36;;;;;;;10.70;4.93;;;16.80;99.90;;;;;;5085337;28;20241;-61
2023/09/12 01:24:35;;;;;;;8.47;4.57;;;16.70;99.90;;;;;;5076813;28;20507;-61
2023/09/12 01:27:18;;;;;;;11.23;4.80;;;16.70;99.90;;;;;;5085652;28;20928;-61
2023/09/12 01:29:46;;;;;;;7.70;4.70;;;16.70;99.90;;;;;;5084036;28;20407;-61
2023/09/12 01:32:13;;;;;;;6.50;4.23;;;16.70;99.90;;;;;;5090103;28;20952;-61
2023/09/12 01:34:39;;;;;;;8.30;4.13;;;16.70;99.90;;;;;;5088361;28;20450;-61
2023/09/12 01:37:04;;;;;;;17.23;4.67;;;16.60;99.90;;;;;;5090490;28;20938;-61
2023/09/12 01:39:30;;;;;;;10.97;5.33;;;16.60;99.90;;;;;;5090766;28;20187;-61
2023/09/12 01:41:59;;;;;;;13.13;4.50;;;16.50;99.90;;;;;;5090278;28;20226;-61
2023/09/12 01:44:27;;;;;;;6.80;3.80;;;16.50;99.90;;;;;;5089735;28;20450;-61
2023/09/12 01:46:54;;;;;;;12.67;5.47;;;16.50;99.90;;;;;;5089868;28;20426;-62
2023/09/12 01:49:22;;;;;;;7.90;4.13;;;16.50;99.90;;;;;;5090325;28;20410;-61
2023/09/12 01:51:48;;;;;;;11.53;5.60;;;16.40;99.90;;;;;;5090687;28;20990;-61
2023/09/12 01:54:14;;;;;;;8.17;4.23;;;16.50;99.90;;;;;;5089770;28;20430;-61
2023/09/12 01:56:40;;;;;;;10.67;5.27;;;16.40;99.90;;;;;;5090426;28;20425;-61
2023/09/12 01:59:06;;;;;;;13.40;4.87;;;16.40;99.90;;;;;;5090040;28;20422;-61
2023/09/12 02:01:32;;;;;;;9.60;5.17;;;16.40;99.90;;;;;;5089595;28;20442;-61
2023/09/12 02:03:58;;;;;;;12.23;5.30;;;16.30;99.90;;;;;;5089467;28;20279;-61
2023/09/12 02:06:23;;;;;;;6.00;4.00;;;16.30;99.90;;;;;;5090169;28;20253;-61
2023/09/12 02:08:49;;;;;;;5.80;3.60;;;16.30;99.90;;;;;;5089944;28;20180;-61
2023/09/12 02:11:14;;;;;;;11.70;5.53;;;16.30;99.90;;;;;;5090212;28;20279;-61
2023/09/12 02:13:40;;;;;;;6.63;4.30;;;16.30;99.90;;;;;;5089678;28;20769;-61
2023/09/12 02:16:06;;;;;;;14.90;5.20;;;16.30;99.90;;;;;;5089518;28;20188;-61
2023/09/12 02:18:31;;;;;;;13.93;5.40;;;16.30;99.90;;;;;;5088505;28;20552;-61
2023/09/12 02:20:59;;;;;;;9.43;4.10;;;16.30;99.90;;;;;;5078494;28;20176;-61
2023/09/12 02:23:24;;;;;;;7.80;4.33;;;16.30;99.90;;;;;;5086261;28;20365;-61
2023/09/12 02:25:50;;;;;;;9.23;4.83;;;16.30;99.90;;;;;;5096715;28;20423;-61
2023/09/12 02:28:15;;;;;;;6.40;3.30;;;16.30;99.90;;;;;;5081047;28;20180;-61
2023/09/12 02:30:41;;;;;;;8.60;5.00;;;16.30;99.90;;;;;;5081612;28;20259;-61
2023/09/12 02:33:07;;;;;;;7.80;4.73;;;16.30;99.90;;;;;;5085234;28;20168;-61
2023/09/12 02:35:32;;;;;;;12.50;6.20;;;16.30;99.90;;;;;;5092573;28;20248;-61
2023/09/12 02:37:58;;;;;;;9.10;4.33;;;16.20;99.90;;;;;;5098980;28;20502;-61
2023/09/12 02:40:24;;;;;;;11.13;4.47;;;16.20;99.90;;;;;;5093475;28;20181;-61
2023/09/12 02:42:50;;;;;;;10.47;4.73;;;16.20;99.90;;;;;;5093637;28;20184;-61
2023/09/12 02:45:15;;;;;;;9.60;4.70;;;16.20;99.90;;;;;;5093140;28;20567;-61
2023/09/12 02:47:43;;;;;;;13.90;4.77;;;16.10;99.90;;;;;;5092604;28;20501;-61
2023/09/12 02:50:09;;;;;;;11.57;5.23;;;16.10;99.90;;;;;;5093705;28;20183;-61
2023/09/12 02:52:34;;;;;;;11.40;4.07;;;16.20;99.90;;;;;;5093128;28;20414;-61
2023/09/12 02:55:00;;;;;;;9.37;5.13;;;16.20;99.90;;;;;;5092974;28;20899;-61
2023/09/12 02:57:25;;;;;;;8.00;3.87;;;16.10;99.90;;;;;;5092981;28;20601;-61
2023/09/12 02:59:51;;;;;;;9.83;4.80;;;16.10;99.90;;;;;;5093226;28;20188;-61
2023/09/12 03:02:17;;;;;;;8.33;4.67;;;16.10;99.90;;;;;;5092125;28;20227;-61
2023/09/12 03:04:42;;;;;;;11.50;4.63;;;16.10;99.90;;;;;;5092856;28;20205;-61
2023/09/12 03:07:08;;;;;;;10.80;6.50;;;16.10;99.90;;;;;;5092760;28;20486;-61
2023/09/12 03:09:33;;;;;;;11.97;5.30;;;16.00;99.90;;;;;;5093783;28;20230;-61
2023/09/12 03:12:02;;;;;;;8.00;4.50;;;16.00;99.90;;;;;;5093378;28;20831;-61
2023/09/12 03:14:28;;;;;;;7.23;4.50;;;16.00;99.90;;;;;;5093397;28;20184;-61
2023/09/12 03:16:54;;;;;;;14.70;6.30;;;16.00;99.90;;;;;;5092608;28;20414;-61
2023/09/12 03:19:20;;;;;;;13.90;4.90;;;16.00;99.90;;;;;;5085432;28;20941;-61
2023/09/12 03:21:45;;;;;;;13.17;5.23;;;16.00;99.90;;;;;;5093333;28;20184;-61
2023/09/12 03:24:11;;;;;;;14.03;5.63;;;16.10;99.90;;;;;;5092881;28;20208;-61
2023/09/12 03:26:36;;;;;;;10.83;5.57;;;16.10;99.90;;;;;;5091334;28;20659;-61
2023/09/12 03:29:03;;;;;;;15.87;5.73;;;16.10;99.90;;;;;;5087454;28;20221;-61
2023/09/12 03:31:29;;;;;;;12.67;6.23;;;16.10;99.90;;;;;;5092753;28;20173;-61
2023/09/12 03:33:55;;;;;;;11.13;6.37;;;16.10;99.90;;;;;;5093047;28;20426;-61
2023/09/12 03:36:20;;;;;;;9.70;5.57;;;16.20;99.90;;;;;;5093346;28;20196;-61
2023/09/12 03:38:46;;;;;;;13.80;5.93;;;16.30;99.90;;;;;;5093308;28;20656;-61
2023/09/12 03:41:11;;;;;;;14.60;5.73;;;16.30;99.90;;;;;;5093384;28;20562;-61
2023/09/12 03:43:37;;;;;;;16.27;5.13;;;16.40;99.90;;;;;;5093042;28;20208;-61
2023/09/12 03:46:03;;;;;;;19.60;6.50;;;16.50;99.90;;;;;;5091810;28;20184;-61
2023/09/12 03:48:33;;;;;;;7.63;5.10;;;16.50;99.90;;;;;;5093297;28;20185;-61
2023/09/12 03:50:59;;;;;;;8.77;5.80;;;16.50;99.90;;;;;;5093087;28;20176;-61
2023/09/12 03:53:26;;;;;;;8.20;4.80;;;16.50;99.90;;;;;;5093076;28;20909;-61
2023/09/12 03:55:52;;;;;;;8.43;4.97;;;16.50;99.90;;;;;;5092613;28;20184;-61
2023/09/12 03:58:18;;;;;;;10.27;5.57;;;16.50;99.90;;;;;;5093543;28;20438;-61
2023/09/12 04:00:43;;;;;;;13.93;6.50;;;16.50;99.90;;;;;;5089831;28;20454;-61
2023/09/12 04:03:09;;;;;;;12.63;6.53;;;16.50;99.90;;;;;;5085673;28;20181;-61
2023/09/12 04:05:35;;;;;;;13.73;6.00;;;16.50;99.90;;;;;;5095110;28;20208;-61
2023/09/12 04:08:00;;;;;;;16.20;5.43;;;16.50;99.90;;;;;;5084032;28;20188;-61
2023/09/12 04:10:26;;;;;;;9.93;5.87;;;16.60;99.90;;;;;;5097168;28;20179;-61
2023/09/12 04:12:51;;;;;;;16.13;5.50;;;16.60;99.90;;;;;;5099350;28;20267;-61
2023/09/12 04:15:17;;;;;;;17.83;6.30;;;16.60;99.90;;;;;;5090566;28;20597;-61
2023/09/12 04:17:43;;;;;;;14.50;6.60;;;16.60;99.90;;;;;;5088090;28;20181;-61
2023/09/12 04:20:09;;;;;;;19.60;5.73;;;16.60;99.90;;;;;;5077888;28;20525;-61
2023/09/12 04:22:34;;;;;;;12.03;5.80;;;16.60;99.90;;;;;;5093757;28;20607;-61
2023/09/12 04:25:00;;;;;;;8.60;5.40;;;16.50;99.90;;;;;;5104273;28;20244;-61
2023/09/12 04:27:25;;;;;;;9.33;5.77;;;16.60;99.90;;;;;;5084268;28;20295;-61
2023/09/12 04:29:51;;;;;;;7.43;4.80;;;16.50;99.90;;;;;;5085860;28;20180;-61
2023/09/12 04:32:23;;;;;;;8.80;5.33;;;16.50;99.90;;;;;;5096231;28;20176;-61
2023/09/12 04:34:51;;;;;;;10.17;5.37;;;16.60;99.90;;;;;;5088778;28;20180;-61
2023/09/12 04:37:17;;;;;;;17.27;5.20;;;16.60;99.90;;;;;;5091238;28;20878;-61
2023/09/12 04:39:43;;;;;;;15.30;5.83;;;16.60;99.90;;;;;;5090308;28;21192;-61
2023/09/12 04:42:08;;;;;;;20.33;6.50;;;16.60;99.90;;;;;;5076511;28;20513;-61
2023/09/12 04:44:40;;;;;;;16.80;6.40;;;16.60;99.90;;;;;;5088850;28;20210;-61
2023/09/12 04:47:06;;;;;;;11.17;6.10;;;16.70;99.90;;;;;;5084937;28;20208;-61
2023/09/12 04:49:31;;;;;;;11.33;5.83;;;16.70;99.90;;;;;;5091091;28;20511;-61
2023/09/12 04:51:57;;;;;;;12.37;6.57;;;16.70;99.90;;;;;;5091510;28;20237;-61
2023/09/12 04:54:22;;;;;;;14.40;5.57;;;16.70;99.90;;;;;;5089625;28;20233;-61
2023/09/12 04:56:48;;;;;;;10.33;5.13;;;16.60;99.90;;;;;;5090735;28;20234;-61
2023/09/12 04:59:14;;;;;;;12.90;5.43;;;16.60;99.90;;;;;;5090765;28;20310;-61
2023/09/12 05:01:40;;;;;;;12.03;5.30;;;16.60;99.90;;;;;;5090670;28;20200;-61
2023/09/12 05:04:05;;;;;;;10.93;5.73;;;16.60;99.90;;;;;;5080676;28;21842;-61
2023/09/12 05:06:31;;;;;;;14.33;6.03;;;16.70;99.90;;;;;;5090997;28;20600;-61
2023/09/12 05:08:57;;;;;;;20.37;7.13;;;16.70;99.90;;;;;;5090950;28;20290;-61
2023/09/12 05:11:24;;;;;;;16.00;6.93;;;16.70;99.90;;;;;;5090960;28;20551;-61
2023/09/12 05:13:50;;;;;;;14.97;6.00;;;16.70;99.90;;;;;;5090604;28;20253;-61
2023/09/12 05:16:15;;;;;;;9.53;5.73;;;16.80;99.90;;;;;;5096798;28;20471;-61
2023/09/12 05:18:41;;;;;;;12.17;6.47;;;16.90;99.90;;;;;;5099081;28;20498;-61
2023/09/12 05:21:07;;;;;;;11.60;5.77;;;17.00;99.90;;;;;;5080346;28;20186;-61
2023/09/12 05:23:32;;;;;;;20.90;5.30;;;17.00;99.90;;;;;;5090462;28;20264;-61
2023/09/12 05:25:58;;;;;;;9.23;5.50;;;17.10;99.90;;;;;;5080743;28;20187;-61
2023/09/12 05:28:23;;;;;;;10.90;5.60;;;17.10;99.90;;;;;;5081354;28;20272;-61
2023/09/12 05:30:49;;;;;;;17.33;5.70;;;17.20;99.90;;;;;;5085136;28;20222;-61
2023/09/12 05:33:17;;;;;;;21.67;5.97;;;17.30;99.90;;;;;;5080982;28;20281;-61
2023/09/12 05:35:44;;;;;;;19.10;5.67;;;17.40;99.90;;;;;;5075308;28;20187;-61
2023/09/12 05:38:10;;;;;;;8.90;5.60;;;17.40;99.90;;;;;;5078442;28;20777;-61
2023/09/12 05:40:35;;;;;;;9.40;5.50;;;17.50;99.90;;;;;;5088271;28;20493;-61
2023/09/12 05:43:01;;;;;;;17.40;6.10;;;17.60;99.90;;;;;;5085988;28;20191;-61
2023/09/12 05:45:30;;;;;;;9.47;5.70;;;17.70;99.90;;;;;;5085763;28;20210;-61
2023/09/12 05:47:56;;;;;;;12.43;5.90;;;17.80;99.90;;;;;;5085170;28;20195;-61
2023/09/12 05:50:22;;;;;;;38.53;7.90;;;17.90;99.90;;;;;;5089575;28;20415;-61
2023/09/12 05:52:48;;;;;;;28.50;8.13;;;18.10;99.90;;;;;;5088886;28;20188;-61
2023/09/12 05:55:13;;;;;;;11.83;5.80;;;18.20;99.90;;;;;;5088162;28;20418;-61
2023/09/12 05:57:39;;;;;;;10.60;4.97;;;18.30;99.90;;;;;;5086651;28;20303;-61
2023/09/12 06:00:05;;;;;;;19.00;5.97;;;18.30;99.90;;;;;;5089518;28;20259;-61
2023/09/12 06:02:33;;;;;;;12.73;6.10;;;18.50;99.90;;;;;;5088226;28;20198;-61
2023/09/12 06:04:58;;;;;;;11.07;5.00;;;18.60;99.90;;;;;;5088608;28;20923;-61
2023/09/12 06:07:25;;;;;;;10.93;5.30;;;18.70;99.90;;;;;;5089160;28;20446;-61
2023/09/12 06:09:50;;;;;;;17.83;5.60;;;18.90;99.90;;;;;;5089939;28;20184;-61
2023/09/12 06:12:16;;;;;;;16.20;6.53;;;19.00;99.90;;;;;;5092866;28;20418;-61
2023/09/12 06:14:42;;;;;;;11.80;5.80;;;19.00;99.90;;;;;;5090230;28;20259;-61
2023/09/12 06:17:07;;;;;;;8.53;5.47;;;19.10;99.90;;;;;;5089460;28;20178;-61
2023/09/12 06:19:33;;;;;;;7.97;5.00;;;19.20;99.90;;;;;;5074735;28;20177;-61
2023/09/12 06:21:58;;;;;;;25.60;5.93;;;19.20;99.90;;;;;;5087209;28;20211;-61
2023/09/12 06:24:24;;;;;;;11.93;5.50;;;19.30;99.90;;;;;;5082543;28;20204;-61
2023/09/12 06:26:50;;;;;;;11.93;5.67;;;19.40;99.90;;;;;;5089765;28;20529;-61
2023/09/12 06:32:29;;;;;;;8.60;4.20;;;19.60;99.90;;;;;;5715818;22;20240;-79
2023/09/12 06:34:55;;;;;;;14.63;4.23;;;19.70;99.90;;;;;;5021366;28;20451;-76
2023/09/12 06:40:26;;;;;;;11.10;5.53;;;19.80;99.90;;;;;;5066410;22;20246;-76
2023/09/12 06:42:51;;;;;;;12.07;5.47;;;19.90;99.90;;;;;;5016168;28;20441;-76
2023/09/12 06:45:17;;;;;;;12.47;5.87;;;19.80;99.90;;;;;;5005157;28;20652;-76
2023/09/12 06:47:43;;;;;;;10.37;4.87;;;19.90;99.90;;;;;;5024652;28;20178;-76
2023/09/12 06:50:09;;;;;;;12.40;5.43;;;19.90;99.90;;;;;;5014915;28;20281;-76
2023/09/12 06:52:34;;;;;;;16.20;5.57;;;19.90;99.90;;;;;;5009907;28;20184;-76
2023/09/12 06:55:00;;;;;;;15.87;5.83;;;19.90;99.90;;;;;;5010358;28;20799;-74
2023/09/12 06:57:25;;;;;;;8.70;5.20;;;19.90;99.90;;;;;;5015133;28;20635;-74
2023/09/12 06:59:51;;;;;;;11.80;5.40;;;20.00;99.90;;;;;;5012768;28;20245;-75
2023/09/12 07:02:18;;;;;;;11.13;5.80;;;20.20;99.90;;;;;;5015060;28;20225;-75
2023/09/12 07:04:43;;;;;;;23.13;4.90;;;20.40;99.90;;;;;;5009488;28;20911;-74
2023/09/12 07:07:09;;;;;;;20.10;5.00;;;20.40;99.90;;;;;;5017860;28;20528;-75
2023/09/12 07:09:34;;;;;;;13.03;5.10;;;20.60;99.90;;;;;;5014671;28;20237;-75
2023/09/12 07:12:00;;;;;;;10.50;5.03;;;21.00;99.90;;;;;;5017458;28;20230;-75
2023/09/12 07:14:26;;;;;;;10.43;4.97;;;21.20;99.90;;;;;;5007267;28;20199;-73
2023/09/12 07:16:51;;;;;;;8.87;5.37;;;21.30;99.90;;;;;;5010931;28;20222;-75
2023/09/12 07:19:17;;;;;;;6.20;4.40;;;21.50;99.90;;;;;;5012423;28;20269;-75
2023/09/12 07:21:43;;;;;;;9.67;5.83;;;22.00;99.90;;;;;;5010200;28;20194;-74
2023/09/12 07:24:08;;;;;;;10.03;5.17;;;22.50;99.90;;;;;;5015380;28;20649;-76
2023/09/12 07:26:34;;;;;;;13.83;5.50;;;23.30;99.90;;;;;;5009013;28;20186;-75
2023/09/12 07:29:02;;;;;;;8.83;5.00;;;23.70;99.90;;;;;;5014935;28;20202;-75
2023/09/12 07:31:28;;;;;;;8.57;5.20;;;24.60;99.90;;;;;;5014555;28;20178;-75
2023/09/12 07:33:53;;;;;;;9.80;5.70;;;24.40;99.90;;;;;;5009384;28;20441;-75
2023/09/12 07:36:19;;;;;;;10.30;5.00;;;24.20;99.90;;;;;;5015273;28;20174;-75
2023/09/12 07:38:45;;;;;;;6.80;4.60;;;23.90;99.90;;;;;;5002904;28;20226;-75
2023/09/12 07:41:11;;;;;;;14.87;5.60;;;23.70;99.90;;;;;;5007638;28;20171;-75
2023/09/12 07:43:36;;;;;;;10.50;6.00;;;23.70;99.90;;;;;;5014575;28;20656;-75
2023/09/12 07:46:02;;;;;;;9.57;4.30;;;23.70;99.90;;;;;;5011732;28;20297;-75
2023/09/12 07:48:27;;;;;;;10.40;5.43;;;23.50;99.90;;;;;;5016930;28;20210;-75
2023/09/12 07:50:53;;;;;;;12.60;4.33;;;23.60;99.90;;;;;;5007209;28;20175;-76
2023/09/12 07:53:19;;;;;;;9.97;5.13;;;23.80;99.90;;;;;;5019521;28;20178;-75
2023/09/12 07:55:46;;;;;;;10.93;4.90;;;24.20;99.90;;;;;;5011883;28;20179;-75
2023/09/12 07:58:18;;;;;;;7.40;4.83;;;24.40;99.90;;;;;;5011387;28;20607;-75
2023/09/12 08:00:44;;;;;;;9.77;4.63;;;24.70;99.90;;;;;;5012697;28;20532;-76
2023/09/12 08:03:09;;;;;;;13.50;5.70;;;24.60;99.90;;;;;;5018064;28;20957;-74
2023/09/12 08:05:35;;;;;;;9.00;4.50;;;24.50;99.90;;;;;;5016047;28;20325;-75
2023/09/12 08:08:01;;;;;;;12.77;5.50;;;24.40;99.90;;;;;;5020716;28;20605;-76
2023/09/12 08:10:27;;;;;;;6.70;4.60;;;24.30;99.90;;;;;;5014363;28;20422;-75
2023/09/12 08:12:53;;;;;;;11.53;5.30;;;24.10;99.90;;;;;;5015470;28;20274;-75
2023/09/12 08:15:19;;;;;;;8.93;4.57;;;24.00;99.90;;;;;;5008468;28;20233;-75
2023/09/12 08:17:45;;;;;;;9.47;4.57;;;23.90;99.90;;;;;;5015543;28;20651;-75
2023/09/12 08:20:11;;;;;;;6.00;4.60;;;24.00;99.90;;;;;;5009446;28;20437;-76
2023/09/12 08:22:37;;;;;;;10.23;5.47;;;24.20;99.90;;;;;;5017837;28;20213;-76
2023/09/12 08:25:03;;;;;;;10.50;4.77;;;24.90;99.90;;;;;;5008107;28;20268;-75
2023/09/12 08:27:28;;;;;;;13.50;6.03;;;25.80;98.70;;;;;;5016679;28;20416;-76
2023/09/12 08:29:54;;;;;;;6.57;4.40;;;26.20;98.10;;;;;;5004054;28;20549;-76
2023/09/12 08:32:20;;;;;;;13.77;5.00;;;26.90;97.10;;;;;;5013620;28;20312;-76
2023/09/12 08:34:45;;;;;;;8.80;4.87;;;27.10;96.60;;;;;;5008717;28;20186;-76
2023/09/12 08:37:11;;;;;;;13.97;5.27;;;27.40;96.50;;;;;;5016372;28;20174;-76
2023/09/12 08:39:45;;;;;;;10.57;5.03;;;27.90;96.50;;;;;;5009477;28;20249;-76
2023/09/12 08:42:13;;;;;;;7.93;4.50;;;28.20;96.10;;;;;;5012672;28;20712;-76
2023/09/12 08:44:41;;;;;;;9.70;4.82;;;28.50;94.50;;;;;;5013158;28;20239;-76
2023/09/12 08:47:09;;;;;;;7.25;3.97;;;29.00;94.10;;;;;;5014335;28;20224;-76
2023/09/12 08:49:37;;;;;;;8.90;5.07;;;29.50;93.60;;;;;;5014586;28;20194;-76
2023/09/12 08:52:03;;;;;;;6.53;4.70;;;29.90;93.30;;;;;;5011028;28;20552;-76
2023/09/12 08:54:29;;;;;;;9.45;5.10;;;30.00;92.60;;;;;;5007142;28;20581;-76
2023/09/12 08:56:56;;;;;;;13.90;4.50;;;30.00;92.30;;;;;;5016347;28;20206;-76
2023/09/12 08:59:22;;;;;;;8.95;4.65;;;30.40;91.50;;;;;;5014341;28;20201;-76
2023/09/12 09:01:51;;;;;;;26.50;4.40;;;30.70;91.40;;;;;;5018712;28;20201;-76
2023/09/12 09:04:18;;;;;;;5.90;3.70;;;30.80;89.60;;;;;;5008339;28;20252;-76
2023/09/12 09:06:46;;;;;;;9.45;5.15;;;30.50;90.90;;;;;;5010952;28;20190;-76
2023/09/12 09:09:12;;;;;;;11.50;4.43;;;29.90;90.70;;;;;;5012973;28;20206;-77
2023/09/12 09:11:38;;;;;;;8.07;4.25;;;29.50;91.70;;;;;;5006860;28;20219;-77
2023/09/12 09:14:04;;;;;;;12.77;5.85;;;29.80;91.00;;;;;;5016031;28;20239;-77
2023/09/12 09:16:30;;;;;;;10.38;4.60;;;30.10;90.10;;;;;;5010201;28;20669;-77
2023/09/12 09:19:00;;;;;;;6.45;3.58;;;30.30;90.10;;;;;;5010514;28;20202;-77
2023/09/12 09:21:31;;;;;;;9.35;4.75;;;30.50;90.20;;;;;;5009363;28;20189;-77
2023/09/12 09:23:59;;;;;;;12.88;4.15;;;30.40;87.50;;;;;;5016449;28;20584;-77
2023/09/12 09:26:25;;;;;;;8.90;4.82;;;30.70;88.30;;;;;;5009142;28;20229;-75
2023/09/12 09:29:04;;;;;;;8.13;4.40;;;30.80;88.80;;;;;;5016393;28;20214;-76
2023/09/12 09:31:29;;;;;;;12.88;5.03;;;30.50;87.20;;;;;;5013088;28;20198;-77
2023/09/12 09:33:55;;;;;;;5.75;3.90;;;30.50;87.80;;;;;;5010597;28;20206;-76
2023/09/12 09:36:21;;;;;;;10.45;4.78;;;30.70;87.20;;;;;;5017395;28;20183;-77
2023/09/12 09:38:46;;;;;;;7.90;4.15;;;30.90;85.20;;;;;;5007909;28;20198;-76
2023/09/12 09:41:12;;;;;;;7.38;4.07;;;30.90;84.70;;;;;;5017569;28;20179;-77
2023/09/12 09:43:38;;;;;;;9.65;4.32;;;30.40;85.00;;;;;;5012000;28;20561;-77
2023/09/12 09:46:04;;;;;;;11.35;4.40;;;30.40;86.20;;;;;;5018459;28;20209;-77
2023/09/12 09:48:32;;;;;;;15.02;4.35;;;30.20;87.40;;;;;;5023678;28;20195;-77
2023/09/12 09:51:02;;;;;;;6.80;3.53;;;30.10;84.90;;;;;;5022232;28;20966;-77
2023/09/12 09:53:29;;;;;;;14.88;3.38;;;29.60;84.70;;;;;;5051663;28;20190;-78
2023/09/12 09:56:15;;;;;;;8.95;4.18;;;29.50;84.00;;;;;;5031824;28;20169;-76
2023/09/12 09:58:54;;;;;;;5.47;3.72;;;29.40;86.60;;;;;;5040811;28;20187;-78
2023/09/12 10:01:28;;;;;;;9.35;3.90;;;29.00;88.30;;;;;;5040488;28;20196;-76
2023/09/12 10:03:59;;;;;;;8.70;4.65;;;28.90;88.30;;;;;;5001937;28;20252;-77
2023/09/12 10:06:26;;;;;;;11.85;4.13;;;28.80;86.90;;;;;;4998958;28;20179;-75
2023/09/12 10:08:54;;;;;;;9.95;4.40;;;29.00;86.40;;;;;;5012677;28;20209;-76
2023/09/12 10:11:23;;;;;;;6.05;3.80;;;29.00;86.90;;;;;;5015597;28;20175;-77
2023/09/12 10:14:01;;;;;;;10.95;4.93;;;29.10;89.90;;;;;;5019021;28;20170;-77
2023/09/12 10:16:31;;;;;;;7.88;4.03;;;29.20;87.80;;;;;;5012910;28;20199;-77
2023/09/12 10:19:03;;;;;;;4.93;3.03;;;29.20;87.70;;;;;;5017661;28;20717;-77
2023/09/12 10:21:34;;;;;;;8.48;3.83;;;29.20;86.60;;;;;;5015484;28;20261;-74
2023/09/12 10:24:00;;;;;;;7.95;4.15;;;29.10;87.90;;;;;;5019562;28;20214;-76
2023/09/12 10:26:26;;;;;;;11.23;4.65;;;29.20;87.50;;;;;;5011934;28;20186;-74
2023/09/12 10:28:52;;;;;;;6.25;3.33;;;29.20;87.40;;;;;;5019229;28;20198;-76
2023/09/12 10:31:19;;;;;;;11.45;4.72;;;29.30;87.80;;;;;;5016319;28;20167;-76
2023/09/12 10:33:47;;;;;;;7.18;3.58;;;29.20;88.30;;;;;;5012257;28;20253;-76
2023/09/12 10:36:14;;;;;;;10.30;4.22;;;29.20;88.80;;;;;;5018511;28;20167;-77
2023/09/12 10:38:45;;;;;;;4.95;3.55;;;29.30;88.30;;;;;;5013814;28;20709;-75
2023/09/12 10:41:14;;;;;;;5.85;3.92;;;29.40;85.70;;;;;;5007200;28;20178;-76
2023/09/12 10:43:50;;;;;;;10.45;4.35;;;29.40;89.00;;;;;;5014140;28;20263;-76
2023/09/12 10:46:16;;;;;;;5.63;3.45;;;29.60;86.00;;;;;;5008825;28;20210;-76
2023/09/12 10:48:41;;;;;;;11.52;4.40;;;29.50;88.30;;;;;;5012435;28;20231;-76
2023/09/12 10:51:09;;;;;;;18.50;4.25;;;29.80;85.10;;;;;;5016479;28;20224;-76
2023/09/12 10:53:35;;;;;;;7.57;3.83;;;29.80;85.40;;;;;;5019016;28;20209;-77
2023/09/12 10:56:16;;;;;;;12.02;4.47;;;29.70;86.70;;;;;;5015946;28;20190;-76
2023/09/12 10:59:06;;;;;;;7.32;4.30;;;29.50;85.70;;;;;;5012945;28;20241;-76
2023/09/12 11:01:34;;;;;;;13.70;3.75;;;29.80;86.80;;;;;;5017865;28;20192;-77
2023/09/12 11:04:18;;;;;;;6.68;3.88;;;29.80;88.10;;;;;;5013237;28;20191;-77
2023/09/12 11:06:44;;;;;;;6.20;3.85;;;30.20;85.60;;;;;;5020104;28;20650;-76
2023/09/12 11:09:23;;;;;;;9.32;4.25;;;30.20;86.40;;;;;;5017283;28;20240;-76
2023/09/12 11:12:04;;;;;;;12.07;4.85;;;30.20;84.30;;;;;;5014057;28;20205;-76
2023/09/12 11:14:31;;;;;;;9.27;4.35;;;30.40;83.60;;;;;;5002183;28;20187;-76
2023/09/12 11:17:06;;;;;;;6.13;4.13;;;30.40;84.40;;;;;;5014973;28;20206;-77
2023/09/12 11:19:44;;;;;;;7.70;3.33;;;30.40;83.00;;;;;;5011959;28;20202;-76
2023/09/12 11:22:23;;;;;;;6.25;3.42;;;30.60;83.10;;;;;;5021299;28;20646;-77
2023/09/12 11:24:48;;;;;;;14.27;3.78;;;30.60;81.10;;;;;;5010216;28;20214;-77
2023/09/12 11:27:14;;;;;;;12.43;4.75;;;30.80;78.80;;;;;;5019200;28;20181;-77
2023/09/12 11:29:40;;;;;;;7.32;4.05;;;30.80;80.00;;;;;;5011671;28;20223;-77
2023/09/12 11:32:07;;;;;;;5.63;3.45;;;30.80;79.40;;;;;;5016263;28;20193;-77
2023/09/12 11:34:51;;;;;;;6.07;3.67;;;31.00;78.70;;;;;;5010610;28;20258;-76
2023/09/12 11:37:28;;;;;;;8.48;3.55;;;31.20;73.30;;;;;;5014286;28;20214;-77
2023/09/12 11:39:54;;;;;;;8.43;3.70;;;31.00;74.90;;;;;;5008991;28;20237;-76
2023/09/12 11:42:22;;;;;;;15.98;4.00;;;31.10;72.30;;;;;;5013486;28;20635;-77
2023/09/12 11:44:50;;;;;;;7.72;4.15;;;31.20;69.60;;;;;;5013934;28;20210;-78
2023/09/12 11:47:15;;;;;;;7.60;3.80;;;31.00;69.30;;;;;;5016104;28;20230;-78
2023/09/12 11:49:41;;;;;;;7.85;4.32;;;31.00;73.80;;;;;;5015558;28;20202;-77
2023/09/12 11:52:12;;;;;;;7.13;3.85;;;30.90;73.80;;;;;;5016940;28;20178;-78
2023/09/12 11:54:40;;;;;;;4.50;2.75;;;31.20;73.30;;;;;;5012120;28;20617;-77
2023/09/12 11:57:08;;;;;;;6.50;4.05;;;31.40;72.50;;;;;;5019286;28;20261;-77
2023/09/12 11:59:37;;;;;;;10.43;3.67;;;31.60;73.40;;;;;;5011514;28;20272;-78
2023/09/12 12:02:09;;;;;;;7.35;4.05;;;31.50;73.80;;;;;;5002321;28;20191;-78
2023/09/12 12:04:35;;;;;;;5.57;3.67;;;31.60;75.20;;;;;;5003462;28;20553;-78
2023/09/12 12:07:01;;;;;;;8.18;4.10;;;31.70;71.30;;;;;;5008258;28;20182;-78
2023/09/12 12:09:27;;;;;;;6.03;3.85;;;31.90;69.40;;;;;;5017154;28;20206;-76
2023/09/12 12:11:53;;;;;;;5.13;3.92;;;31.80;72.20;;;;;;5009848;28;20236;-78
2023/09/12 12:14:19;;;;;;;11.13;4.30;;;31.80;71.50;;;;;;5008634;28;20187;-78
2023/09/12 12:16:46;;;;;;;7.07;4.32;;;31.70;76.50;;;;;;5011936;28;21093;-76
2023/09/12 12:19:14;;;;;;;6.07;4.38;;;31.80;72.20;;;;;;5011195;28;20256;-76
2023/09/12 12:21:40;;;;;;;7.53;4.22;;;31.80;72.50;;;;;;5009943;28;20202;-77
2023/09/12 12:24:10;;;;;;;6.03;3.85;;;32.10;71.90;;;;;;5014069;28;20179;-76
2023/09/12 12:26:36;;;;;;;10.48;4.18;;;32.30;72.30;;;;;;5008277;28;20552;-76
2023/09/12 12:29:02;;;;;;;4.65;3.22;;;32.60;72.00;;;;;;5015232;28;20202;-76
2023/09/12 12:31:29;;;;;;;5.53;3.55;;;32.60;71.40;;;;;;5013618;28;20183;-76
2023/09/12 12:33:55;;;;;;;6.28;4.10;;;32.60;67.90;;;;;;5010323;28;20195;-76
2023/09/12 12:36:21;;;;;;;7.50;3.42;;;32.60;67.50;;;;;;5017818;28;20175;-76
2023/09/12 12:38:48;;;;;;;12.68;4.57;;;32.60;68.10;;;;;;5011317;28;20205;-76
2023/09/12 12:41:30;;;;;;;7.30;3.78;;;32.30;68.70;;;;;;5010734;28;20681;-76
2023/09/12 12:44:01;;;;;;;6.38;4.07;;;32.00;70.90;;;;;;5013456;28;20181;-76
2023/09/12 12:46:30;;;;;;;8.65;3.97;;;32.00;67.60;;;;;;5015620;28;20180;-76